Moron de la Frontera, Spain
Current Conditions -  °F | °C
As of 10:00 AM on Sunday 23 Nov 2014 (Local Time) from LEMO Reporting Station
Few Clouds Few Clouds  
Wind Chill: 61°   Ceiling: Unl
Heat Index: 61°   Visibility: 5mi
Dew Point: 55°   Wind: 0mph
Humidity: 82%   Direction: NA
Pressure: 29.83"   Gusts: NA
Location:  37.12°N, 5.45°W
Report Text: LEMO 230900Z 00000KT 8000 FEW015 FEW020TCU 16/13 Q1010 NOSIG
Loading
Personal Weather Stations






























Interactive Weather Map New forecast layout! Learn more

10-Day Weather Forecast

Advertisements
Track Severe Weather on mobile